Time;durP1;ratioP1;P1;durP2;ratioP2;P2;SDS_P1;SDS_P2;PMS_P1;PMS_P2;Temp;Humidity;BMP_temperature;BMP_pressure;BME280_temperature;BME280_humidity;BME280_pressure;Samples;Min_cycle;Max_cycle;Signal;HPM_P1;HPM_P2
2022/10/26 00:01:27;;;;;;;27.20;18.80;;;14.20;99.90;;;;;;5064912;28;22466;-76
2022/10/26 00:04:16;;;;;;;22.00;17.02;;;14.10;99.90;;;;;;5076959;28;20232;-77
2022/10/26 00:07:05;;;;;;;22.67;16.85;;;14.20;99.90;;;;;;5063297;28;20231;-77
2022/10/26 00:09:54;;;;;;;24.73;18.35;;;14.20;99.90;;;;;;5053206;28;20314;-76
2022/10/26 00:12:43;;;;;;;23.42;17.98;;;14.20;99.90;;;;;;5050083;28;20224;-77
2022/10/26 00:15:33;;;;;;;23.52;19.02;;;14.20;99.90;;;;;;5073116;28;20224;-77
2022/10/26 00:18:22;;;;;;;24.00;18.38;;;14.10;99.90;;;;;;5070712;28;20731;-75
2022/10/26 00:21:11;;;;;;;25.52;18.77;;;14.20;99.90;;;;;;5062418;28;20261;-76
2022/10/26 00:24:00;;;;;;;23.35;18.60;;;14.20;99.90;;;;;;5063662;28;20270;-77
2022/10/26 00:26:48;;;;;;;29.40;19.80;;;14.20;99.90;;;;;;5056980;28;20219;-76
2022/10/26 00:29:37;;;;;;;25.35;19.70;;;14.20;99.90;;;;;;5060733;28;20352;-76
2022/10/26 00:32:27;;;;;;;26.83;19.52;;;14.20;99.90;;;;;;5066678;28;20640;-76
2022/10/26 00:35:16;;;;;;;26.02;19.60;;;14.20;99.90;;;;;;5060129;28;20303;-77
2022/10/26 00:38:25;;;;;;;28.23;19.90;;;14.20;99.90;;;;;;5052732;28;20239;-77
2022/10/26 00:41:15;;;;;;;27.13;20.60;;;14.30;99.90;;;;;;5061888;28;20619;-75
2022/10/26 00:44:37;;;;;;;29.90;21.17;;;14.30;99.90;;;;;;5062093;28;20227;-76
2022/10/26 00:47:35;;;;;;;26.52;19.75;;;14.30;99.90;;;;;;5066019;28;22167;-76
2022/10/26 00:50:29;;;;;;;30.73;21.00;;;14.30;99.90;;;;;;5063697;28;20303;-76
2022/10/26 00:53:18;;;;;;;32.08;20.50;;;14.30;99.90;;;;;;5053049;28;20597;-76
2022/10/26 00:56:07;;;;;;;27.23;19.92;;;14.30;99.90;;;;;;5037398;28;20223;-76
2022/10/26 00:59:00;;;;;;;27.38;20.58;;;14.30;99.90;;;;;;5066275;28;20239;-78
2022/10/26 01:01:49;;;;;;;26.65;20.80;;;14.30;99.90;;;;;;5059909;28;20227;-77
2022/10/26 01:04:40;;;;;;;30.13;21.42;;;14.30;99.90;;;;;;5060299;28;20223;-78
2022/10/26 01:07:28;;;;;;;27.95;20.13;;;14.30;99.90;;;;;;5064517;28;20239;-76
2022/10/26 01:10:17;;;;;;;30.05;21.13;;;14.30;99.90;;;;;;5063390;28;20240;-77
2022/10/26 01:13:07;;;;;;;28.50;21.27;;;14.30;99.90;;;;;;5045964;28;20227;-77
2022/10/26 01:16:18;;;;;;;26.17;21.40;;;14.30;99.90;;;;;;5065008;28;21165;-79
2022/10/26 01:19:36;;;;;;;30.55;20.63;;;14.30;99.90;;;;;;5055351;28;20227;-76
2022/10/26 01:22:30;;;;;;;30.33;21.55;;;14.30;99.90;;;;;;5049439;28;20220;-76
2022/10/26 01:25:40;;;;;;;32.15;22.15;;;14.30;99.90;;;;;;5060257;28;20216;-75
2022/10/26 01:28:45;;;;;;;25.90;21.55;;;14.30;99.90;;;;;;5060334;28;20220;-77
2022/10/26 01:31:41;;;;;;;27.30;21.10;;;14.30;99.90;;;;;;5065840;28;20235;-77
2022/10/26 01:34:34;;;;;;;28.13;22.08;;;14.30;99.90;;;;;;5062024;28;20594;-76
2022/10/26 01:37:28;;;;;;;27.80;20.67;;;14.40;99.90;;;;;;5066117;28;20733;-74
2022/10/26 01:40:21;;;;;;;28.25;20.85;;;14.30;99.90;;;;;;5047373;28;20232;-77
2022/10/26 01:43:12;;;;;;;29.48;21.67;;;14.40;99.90;;;;;;5059468;28;20229;-77
2022/10/26 01:46:03;;;;;;;26.95;20.65;;;14.30;99.90;;;;;;5049485;28;20239;-79
2022/10/26 01:48:59;;;;;;;24.33;20.73;;;14.30;99.90;;;;;;5041138;28;20547;-78
2022/10/26 01:51:49;;;;;;;26.38;20.95;;;14.40;99.90;;;;;;5060108;28;20719;-77
2022/10/26 01:54:38;;;;;;;29.48;21.55;;;14.40;99.90;;;;;;5061154;28;20572;-77
2022/10/26 01:57:27;;;;;;;27.70;21.52;;;14.30;99.90;;;;;;5062806;28;20277;-76
2022/10/26 02:00:16;;;;;;;25.85;21.63;;;14.30;99.90;;;;;;5056471;28;20681;-77
2022/10/26 02:03:16;;;;;;;29.88;20.83;;;14.20;99.90;;;;;;5038800;28;20232;-76
2022/10/26 02:06:17;;;;;;;29.25;20.90;;;14.20;99.90;;;;;;5066606;28;20216;-76
2022/10/26 02:09:13;;;;;;;25.08;20.70;;;14.30;99.90;;;;;;5060295;28;20219;-76
2022/10/26 02:12:11;;;;;;;29.33;22.90;;;14.30;99.90;;;;;;5064810;28;20228;-76
2022/10/26 02:15:08;;;;;;;31.15;22.60;;;14.30;99.90;;;;;;5063413;28;20224;-77
2022/10/26 02:18:00;;;;;;;29.67;22.70;;;14.30;99.90;;;;;;5062234;28;20251;-76
2022/10/26 02:20:53;;;;;;;31.92;23.73;;;14.30;99.90;;;;;;5056514;28;20236;-76
2022/10/26 02:23:47;;;;;;;31.38;24.08;;;14.20;99.90;;;;;;5042753;28;20282;-76
2022/10/26 02:26:37;;;;;;;28.77;23.50;;;14.20;99.90;;;;;;5061821;28;20318;-77
2022/10/26 02:29:28;;;;;;;27.65;22.50;;;14.30;99.90;;;;;;5056918;28;20233;-77
2022/10/26 02:32:20;;;;;;;28.25;22.50;;;14.20;99.90;;;;;;5047628;28;20683;-78
2022/10/26 02:35:09;;;;;;;30.23;22.52;;;14.20;99.90;;;;;;5055258;28;20224;-77
2022/10/26 02:38:02;;;;;;;30.35;22.77;;;14.10;99.90;;;;;;5040788;28;20212;-77
2022/10/26 02:40:53;;;;;;;29.55;22.73;;;14.10;99.90;;;;;;5047988;28;20587;-77
2022/10/26 02:43:47;;;;;;;31.92;22.45;;;14.10;99.90;;;;;;5063646;28;20228;-77
2022/10/26 02:46:37;;;;;;;29.33;22.08;;;14.10;99.90;;;;;;5046596;28;20220;-76
2022/10/26 02:49:26;;;;;;;31.63;22.75;;;14.10;99.90;;;;;;5056577;28;20721;-79
2022/10/26 02:52:23;;;;;;;28.05;22.58;;;14.10;99.90;;;;;;5054269;28;20231;-77
2022/10/26 02:55:18;;;;;;;35.88;24.33;;;14.00;99.90;;;;;;5047131;28;20240;-77
2022/10/26 02:58:14;;;;;;;33.08;22.92;;;14.10;99.90;;;;;;5052624;28;20319;-77
2022/10/26 03:01:04;;;;;;;30.40;23.02;;;14.00;99.90;;;;;;5048958;28;20584;-76
2022/10/26 03:03:57;;;;;;;30.02;22.55;;;14.00;99.90;;;;;;5053817;28;20227;-76
2022/10/26 03:06:52;;;;;;;30.13;21.67;;;14.00;99.90;;;;;;5066722;28;20223;-72
2022/10/26 03:09:41;;;;;;;30.35;21.92;;;14.10;99.90;;;;;;5063721;28;20865;-78
2022/10/26 03:12:30;;;;;;;29.02;21.88;;;14.10;99.90;;;;;;5049067;28;20208;-76
2022/10/26 03:15:21;;;;;;;27.10;21.83;;;14.10;99.90;;;;;;5058734;28;20250;-76
2022/10/26 03:18:09;;;;;;;29.30;22.30;;;14.10;99.90;;;;;;5056632;28;20232;-76
2022/10/26 03:20:58;;;;;;;33.97;22.42;;;14.10;99.90;;;;;;5068035;28;20231;-77
2022/10/26 03:23:49;;;;;;;29.15;22.85;;;14.00;99.90;;;;;;5051607;28;21005;-77
2022/10/26 03:26:38;;;;;;;32.08;23.80;;;14.00;99.90;;;;;;5053080;28;20729;-77
2022/10/26 03:29:26;;;;;;;37.03;25.25;;;13.90;99.90;;;;;;5052475;28;20220;-78
2022/10/26 03:32:16;;;;;;;33.85;24.25;;;14.00;99.90;;;;;;5069101;28;20223;-77
2022/10/26 03:35:05;;;;;;;34.92;24.38;;;14.00;99.90;;;;;;5062813;28;20234;-78
2022/10/26 03:37:54;;;;;;;35.33;25.30;;;14.00;99.90;;;;;;5053082;28;20228;-78
2022/10/26 03:40:43;;;;;;;38.58;25.77;;;14.00;99.90;;;;;;5065094;28;20224;-78
2022/10/26 03:43:32;;;;;;;31.35;23.73;;;14.00;99.90;;;;;;5048868;28;20221;-78
2022/10/26 03:46:20;;;;;;;39.40;26.00;;;14.00;99.90;;;;;;5060083;28;20599;-78
2022/10/26 03:49:10;;;;;;;35.42;24.73;;;13.90;99.90;;;;;;5059294;28;20224;-78
2022/10/26 03:51:59;;;;;;;34.08;25.13;;;13.90;99.90;;;;;;5063694;28;20216;-78
2022/10/26 03:54:48;;;;;;;38.08;25.48;;;13.90;99.90;;;;;;5066159;28;20224;-77
2022/10/26 03:57:41;;;;;;;35.15;24.40;;;13.90;99.90;;;;;;5061211;28;20220;-78
2022/10/26 04:00:30;;;;;;;32.80;23.98;;;13.80;99.90;;;;;;5059873;28;20228;-77
2022/10/26 04:03:22;;;;;;;33.75;23.73;;;13.90;99.90;;;;;;5057714;28;20621;-77
2022/10/26 04:06:12;;;;;;;36.15;25.00;;;13.90;99.90;;;;;;5070570;28;21099;-76
2022/10/26 04:09:02;;;;;;;36.35;23.58;;;14.00;99.90;;;;;;5062938;28;20751;-78
2022/10/26 04:11:51;;;;;;;37.17;25.33;;;13.90;99.90;;;;;;5041081;28;20235;-77
2022/10/26 04:14:40;;;;;;;34.33;23.92;;;13.80;99.90;;;;;;5058480;28;20227;-77
2022/10/26 04:17:28;;;;;;;35.50;25.95;;;13.90;99.90;;;;;;5063925;28;21000;-79
2022/10/26 04:20:17;;;;;;;40.38;26.77;;;13.80;99.90;;;;;;5070388;28;20655;-79
2022/10/26 04:23:10;;;;;;;32.28;25.75;;;13.80;99.90;;;;;;5061652;28;20247;-79
2022/10/26 04:25:59;;;;;;;40.33;26.08;;;13.80;99.90;;;;;;5057576;28;20232;-78
2022/10/26 04:28:48;;;;;;;36.45;25.83;;;13.90;99.90;;;;;;5046009;28;20607;-78
2022/10/26 04:31:37;;;;;;;37.05;25.08;;;13.90;99.90;;;;;;5047664;28;20220;-78
2022/10/26 04:34:26;;;;;;;32.58;24.50;;;13.90;99.90;;;;;;5063366;28;20238;-78
2022/10/26 04:37:15;;;;;;;34.05;25.25;;;13.80;99.90;;;;;;5050680;28;20310;-77
2022/10/26 04:40:06;;;;;;;35.90;26.00;;;13.80;99.90;;;;;;5049051;28;20638;-76
2022/10/26 04:42:55;;;;;;;35.20;25.17;;;13.80;99.90;;;;;;5046040;28;20306;-77
2022/10/26 04:45:44;;;;;;;33.25;25.83;;;13.80;99.90;;;;;;5061670;28;20353;-77
2022/10/26 04:48:32;;;;;;;35.90;26.05;;;13.80;99.90;;;;;;5064094;28;20224;-77
2022/10/26 04:51:21;;;;;;;33.40;25.48;;;13.70;99.90;;;;;;5061627;28;20228;-77
2022/10/26 04:54:10;;;;;;;32.40;24.60;;;13.70;99.90;;;;;;5063343;28;20224;-76
2022/10/26 04:57:00;;;;;;;35.47;26.30;;;13.80;99.90;;;;;;5058860;28;20232;-77
2022/10/26 04:59:48;;;;;;;37.20;26.15;;;13.80;99.90;;;;;;5041458;28;20235;-77
2022/10/26 05:02:37;;;;;;;38.20;26.50;;;13.80;99.90;;;;;;5070175;28;20355;-75
2022/10/26 05:05:26;;;;;;;31.73;24.60;;;13.80;99.90;;;;;;5050652;28;20231;-75
2022/10/26 05:08:15;;;;;;;36.08;26.00;;;13.80;99.90;;;;;;5050942;28;20224;-77
2022/10/26 05:11:03;;;;;;;34.33;24.70;;;13.70;99.90;;;;;;5062883;28;20748;-76
2022/10/26 05:13:54;;;;;;;36.25;25.48;;;13.60;99.90;;;;;;5050575;28;20228;-75
2022/10/26 05:16:43;;;;;;;39.47;26.48;;;13.70;99.90;;;;;;5062508;28;20251;-79
2022/10/26 05:19:32;;;;;;;36.10;26.38;;;13.70;99.90;;;;;;5062050;28;20595;-77
2022/10/26 05:22:20;;;;;;;35.38;25.15;;;13.70;99.90;;;;;;5042891;28;20224;-78
2022/10/26 05:25:09;;;;;;;38.05;25.45;;;13.70;99.90;;;;;;5042645;28;20330;-77
2022/10/26 05:27:58;;;;;;;39.67;25.13;;;13.70;99.90;;;;;;5050487;28;20827;-77
2022/10/26 05:30:49;;;;;;;37.67;25.33;;;13.70;99.90;;;;;;5059448;28;20828;-76
2022/10/26 05:33:38;;;;;;;39.70;26.27;;;13.70;99.90;;;;;;5066281;28;20359;-76
2022/10/26 05:36:27;;;;;;;36.42;24.20;;;13.80;99.90;;;;;;5057024;28;20227;-76
2022/10/26 05:39:15;;;;;;;36.33;24.00;;;13.70;99.90;;;;;;5048373;28;20307;-76
2022/10/26 05:42:04;;;;;;;32.97;23.00;;;13.70;99.90;;;;;;5055114;28;20243;-78
2022/10/26 05:44:53;;;;;;;33.55;22.42;;;13.70;99.90;;;;;;5059556;28;22250;-77
2022/10/26 05:47:44;;;;;;;27.75;19.15;;;13.80;99.90;;;;;;5057290;28;20217;-76
2022/10/26 05:50:33;;;;;;;30.40;20.80;;;13.80;99.90;;;;;;5050020;28;20270;-76
2022/10/26 05:53:22;;;;;;;27.30;20.90;;;13.80;99.90;;;;;;5038909;28;20212;-77
2022/10/26 05:56:18;;;;;;;26.58;19.45;;;13.90;99.90;;;;;;5072132;28;20799;-77
2022/10/26 05:59:12;;;;;;;31.17;20.13;;;13.70;99.90;;;;;;5062250;28;20220;-76
2022/10/26 06:02:10;;;;;;;31.10;19.25;;;13.80;99.90;;;;;;5065589;28;20227;-77
2022/10/26 06:05:04;;;;;;;26.73;18.08;;;13.80;99.90;;;;;;5064861;28;20225;-76
2022/10/26 06:07:54;;;;;;;30.75;19.98;;;13.70;99.90;;;;;;5042539;28;20251;-75
2022/10/26 06:10:43;;;;;;;32.17;21.08;;;13.70;99.90;;;;;;5062951;28;20220;-76
2022/10/26 06:13:33;;;;;;;30.75;20.98;;;13.80;99.90;;;;;;5049734;28;20235;-78
2022/10/26 06:16:33;;;;;;;33.78;20.30;;;13.90;99.90;;;;;;5055851;28;20920;-77
2022/10/26 06:19:31;;;;;;;32.03;20.48;;;13.90;99.90;;;;;;5061536;28;20231;-76
2022/10/26 06:22:48;;;;;;;30.23;20.42;;;14.00;99.90;;;;;;5062907;28;20262;-77
2022/10/26 06:25:48;;;;;;;30.50;21.42;;;14.00;99.90;;;;;;5053173;28;20221;-78
2022/10/26 06:28:44;;;;;;;31.60;19.70;;;14.00;99.90;;;;;;5072074;28;20257;-74
2022/10/26 06:31:37;;;;;;;31.05;19.13;;;14.00;99.90;;;;;;5072827;28;20336;-75
2022/10/26 06:34:28;;;;;;;27.90;18.60;;;14.00;99.90;;;;;;5051237;28;20229;-76
2022/10/26 06:37:17;;;;;;;28.45;18.33;;;14.10;99.90;;;;;;5065438;28;20230;-75
2022/10/26 06:40:10;;;;;;;27.05;18.55;;;14.10;99.90;;;;;;5062704;28;20231;-76
2022/10/26 06:42:59;;;;;;;25.38;18.00;;;14.10;99.90;;;;;;5062243;28;20308;-77
2022/10/26 06:45:54;;;;;;;28.40;17.75;;;14.10;99.90;;;;;;5037599;28;20239;-76
2022/10/26 06:48:51;;;;;;;26.58;17.33;;;14.10;99.90;;;;;;5037012;28;20220;-77
2022/10/26 06:51:47;;;;;;;26.25;16.98;;;14.00;99.90;;;;;;5073617;28;20219;-77
2022/10/26 06:54:47;;;;;;;24.60;16.25;;;14.00;99.90;;;;;;5054092;28;20217;-76
2022/10/26 06:57:39;;;;;;;25.60;16.42;;;14.00;99.90;;;;;;5041197;28;20224;-76
2022/10/26 07:00:28;;;;;;;22.75;16.92;;;14.10;99.90;;;;;;5054784;28;20220;-76
2022/10/26 07:03:17;;;;;;;26.17;17.38;;;14.20;99.90;;;;;;5052775;28;20350;-76
2022/10/26 07:06:06;;;;;;;30.58;17.88;;;14.10;99.90;;;;;;5073006;28;20223;-76
2022/10/26 07:08:55;;;;;;;31.20;18.95;;;14.10;99.90;;;;;;5063522;28;20829;-76
2022/10/26 07:11:44;;;;;;;28.55;18.55;;;14.00;99.90;;;;;;5052942;28;20711;-77
2022/10/26 07:14:34;;;;;;;29.17;18.42;;;14.10;99.90;;;;;;5061149;28;20228;-76
2022/10/26 07:17:26;;;;;;;27.77;18.67;;;14.00;99.90;;;;;;5049715;28;20304;-76
2022/10/26 07:20:15;;;;;;;29.58;19.70;;;14.10;99.90;;;;;;5041160;28;21054;-77
2022/10/26 07:23:06;;;;;;;31.38;19.75;;;14.10;99.90;;;;;;5064302;28;20698;-77
2022/10/26 07:25:55;;;;;;;31.88;21.27;;;14.10;99.90;;;;;;5078713;28;20251;-77
2022/10/26 07:28:48;;;;;;;27.90;19.05;;;14.20;99.90;;;;;;5054545;28;20231;-77
2022/10/26 07:31:38;;;;;;;28.80;19.83;;;14.20;99.90;;;;;;5047620;28;20715;-76
2022/10/26 07:34:26;;;;;;;31.30;18.70;;;14.20;99.90;;;;;;5059580;28;20228;-77
2022/10/26 07:37:15;;;;;;;27.92;19.88;;;14.20;99.90;;;;;;5066114;28;20282;-76
2022/10/26 07:40:05;;;;;;;30.85;20.13;;;14.20;99.90;;;;;;5060866;28;20283;-76
2022/10/26 07:42:57;;;;;;;26.67;19.05;;;14.30;99.90;;;;;;5036446;28;20220;-76
2022/10/26 07:45:49;;;;;;;27.08;19.05;;;14.20;99.90;;;;;;5063233;28;20718;-77
2022/10/26 07:48:41;;;;;;;28.30;19.10;;;14.30;99.90;;;;;;5048549;28;20243;-76
2022/10/26 07:51:30;;;;;;;27.13;20.48;;;14.40;99.90;;;;;;5055786;28;20319;-76
2022/10/26 07:54:18;;;;;;;31.05;20.95;;;14.40;99.90;;;;;;5079785;28;20224;-75
2022/10/26 07:57:07;;;;;;;33.45;21.00;;;14.40;99.90;;;;;;5064011;28;20216;-75
2022/10/26 07:59:56;;;;;;;26.20;18.42;;;14.30;99.90;;;;;;5066759;28;20568;-75
2022/10/26 08:02:45;;;;;;;28.98;19.42;;;14.20;99.90;;;;;;5065757;28;20244;-73
2022/10/26 08:05:35;;;;;;;28.40;18.85;;;14.10;99.90;;;;;;5058491;28;20227;-74
2022/10/26 08:08:24;;;;;;;27.52;18.45;;;14.20;99.90;;;;;;5057122;28;20226;-75
2022/10/26 08:11:13;;;;;;;27.83;17.60;;;14.20;99.90;;;;;;5053138;28;20254;-75
2022/10/26 08:14:02;;;;;;;24.42;17.50;;;14.20;99.90;;;;;;5068457;28;20746;-77
2022/10/26 08:16:51;;;;;;;23.83;18.00;;;14.10;99.90;;;;;;5053269;28;20259;-75
2022/10/26 08:19:40;;;;;;;25.33;17.80;;;14.10;99.90;;;;;;5062279;28;20216;-77
2022/10/26 08:22:30;;;;;;;22.40;15.00;;;14.20;99.90;;;;;;5066032;28;20234;-76
2022/10/26 08:25:19;;;;;;;19.92;14.23;;;14.10;99.90;;;;;;5068449;28;20595;-76
2022/10/26 08:28:09;;;;;;;24.63;16.40;;;14.10;99.90;;;;;;5063419;28;20736;-77
2022/10/26 08:30:58;;;;;;;25.73;18.95;;;14.10;99.90;;;;;;5063553;28;20229;-77
2022/10/26 08:33:47;;;;;;;26.77;19.05;;;14.20;99.90;;;;;;5073407;28;20309;-76
2022/10/26 08:36:36;;;;;;;24.15;16.50;;;14.20;99.90;;;;;;5064482;28;20220;-76
2022/10/26 08:39:27;;;;;;;23.73;16.85;;;14.20;99.90;;;;;;5068159;28;20745;-79
2022/10/26 08:42:23;;;;;;;29.33;18.65;;;14.20;99.90;;;;;;5046516;28;20269;-77
2022/10/26 08:45:23;;;;;;;30.63;20.23;;;14.10;99.90;;;;;;5050471;28;20308;-77
2022/10/26 08:48:24;;;;;;;35.22;24.27;;;14.10;99.90;;;;;;5042864;28;20248;-77
2022/10/26 08:51:18;;;;;;;29.70;21.30;;;14.10;99.90;;;;;;5047243;28;20228;-76
2022/10/26 08:54:14;;;;;;;32.90;22.15;;;14.10;99.90;;;;;;5054964;28;20235;-78
2022/10/26 08:57:15;;;;;;;33.97;20.98;;;14.10;99.90;;;;;;5053584;28;20223;-77
2022/10/26 09:00:06;;;;;;;27.98;18.95;;;14.10;99.90;;;;;;5068438;28;20222;-78
2022/10/26 09:02:55;;;;;;;30.08;19.90;;;14.20;99.90;;;;;;5072204;28;20216;-80
2022/10/26 09:05:57;;;;;;;28.90;19.52;;;14.20;99.90;;;;;;5068298;28;20247;-75
2022/10/26 09:08:56;;;;;;;31.40;19.33;;;14.10;99.90;;;;;;5063433;28;20325;-72
2022/10/26 09:11:55;;;;;;;27.90;18.17;;;14.00;99.90;;;;;;5043840;28;20217;-79
2022/10/26 09:14:52;;;;;;;25.92;17.83;;;;;;;;;;5043148;28;20223;-74
2022/10/26 09:17:49;;;;;;;26.88;17.90;;;14.50;99.90;;;;;;5058547;28;20232;-76
2022/10/26 09:21:09;;;;;;;27.35;17.58;;;14.20;99.90;;;;;;5042847;28;20221;-76
2022/10/26 09:24:04;;;;;;;28.67;19.15;;;14.00;99.90;;;;;;5069364;28;20216;-79
2022/10/26 09:27:02;;;;;;;28.52;18.58;;;14.10;99.90;;;;;;5042753;28;20221;-79
2022/10/26 09:29:54;;;;;;;27.35;18.23;;;14.10;99.90;;;;;;5058108;28;20223;-73
2022/10/26 09:32:46;;;;;;;28.58;18.40;;;14.20;99.90;;;;;;5044734;28;21064;-76
2022/10/26 09:35:44;;;;;;;28.35;18.83;;;14.30;99.90;;;;;;5058225;28;20213;-78
2022/10/26 09:38:36;;;;;;;29.38;19.95;;;14.20;99.90;;;;;;5063208;28;20220;-77
2022/10/26 09:42:41;;;;;;;27.92;18.70;;;14.40;99.90;;;;;;5046859;28;20696;-77
2022/10/26 09:45:33;;;;;;;27.98;18.10;;;14.30;99.90;;;;;;5046089;28;20231;-78
2022/10/26 09:48:29;;;;;;;29.38;17.13;;;14.30;99.90;;;;;;5047743;28;20701;-75
2022/10/26 09:51:18;;;;;;;23.17;17.58;;;14.30;99.90;;;;;;5036714;28;20217;-77
